Time;durP1;ratioP1;P1;durP2;ratioP2;P2;SDS_P1;SDS_P2;PMS_P1;PMS_P2;Temp;Humidity;BMP_temperature;BMP_pressure;BME280_temperature;BME280_humidity;BME280_pressure;Samples;Min_cycle;Max_cycle;Signal;HPM_P1;HPM_P2
2022/08/26 00:01:15;;;;;;;16.30;5.30;;;;;;;23.08;48.92;100433.30;105691;1288;22578;-77
2022/08/26 00:03:41;;;;;;;15.90;5.30;;;;;;;23.08;49.09;100430.60;105642;1288;22853;-77
2022/08/26 00:06:08;;;;;;;12.40;4.90;;;;;;;23.07;49.17;100426.52;105530;1288;22518;-76
2022/08/26 00:08:38;;;;;;;15.10;5.40;;;;;;;23.06;49.21;100426.41;104974;1288;24433;-78
2022/08/26 00:11:08;;;;;;;17.10;5.30;;;;;;;23.04;49.41;100423.84;104710;1288;25341;-75
2022/08/26 00:13:35;;;;;;;12.70;5.20;;;;;;;23.00;49.80;100426.57;105352;1288;24822;-76
2022/08/26 00:16:03;;;;;;;14.70;5.00;;;;;;;22.93;49.86;100423.60;104757;1287;23310;-76
2022/08/26 00:18:30;;;;;;;13.70;5.40;;;;;;;22.87;50.14;100419.34;104896;1287;25383;-80
2022/08/26 00:21:05;;;;;;;10.80;5.00;;;;;;;22.83;50.31;100421.70;104976;1287;22660;-80
2022/08/26 00:23:32;;;;;;;11.30;5.10;;;;;;;22.75;50.56;100425.01;104720;1289;22601;-78
2022/08/26 00:26:00;;;;;;;12.60;6.40;;;;;;;22.73;50.59;100422.10;104724;1288;22645;-75
2022/08/26 00:28:27;;;;;;;9.70;4.70;;;;;;;22.70;50.96;100422.45;104753;1288;22708;-78
2022/08/26 00:30:53;;;;;;;20.60;6.20;;;;;;;22.62;51.43;100419.71;104732;1287;25355;-78
2022/08/26 00:33:20;;;;;;;11.80;5.40;;;;;;;22.59;51.37;100420.77;103826;1295;25021;-78
2022/08/26 00:35:48;;;;;;;10.50;5.00;;;;;;;22.57;51.53;100420.52;103724;1299;22617;-76
2022/08/26 00:38:17;;;;;;;10.20;4.50;;;;;;;22.50;51.73;100418.23;103949;1299;25369;-77
2022/08/26 00:40:47;;;;;;;11.10;4.90;;;;;;;22.45;51.86;100417.79;103785;1299;22606;-78
2022/08/26 00:43:15;;;;;;;11.70;4.90;;;;;;;22.42;52.09;100417.45;104120;1300;22576;-79
2022/08/26 00:45:47;;;;;;;12.80;5.00;;;;;;;22.42;52.20;100417.45;103180;1305;22618;-76
2022/08/26 00:48:17;;;;;;;13.10;4.90;;;;;;;22.40;52.37;100418.59;103168;1305;22651;-79
2022/08/26 00:51:00;;;;;;;10.40;5.00;;;;;;;22.37;52.37;100420.19;103019;1300;24326;-78
2022/08/26 00:53:30;;;;;;;14.10;5.20;;;;;;;22.35;52.60;100422.11;103609;1297;25334;-79
2022/08/26 00:56:02;;;;;;;14.20;5.50;;;;;;;22.32;52.60;100423.20;104130;1294;23997;-77
2022/08/26 00:58:32;;;;;;;12.60;5.30;;;;;;;22.29;52.66;100426.23;103797;1296;24007;-77
2022/08/26 01:01:00;;;;;;;13.90;5.00;;;;;;;22.24;53.13;100432.80;104244;1294;22621;-77
2022/08/26 01:03:29;;;;;;;15.70;5.70;;;;;;;22.17;53.21;100430.67;104323;1289;24123;-79
2022/08/26 01:05:59;;;;;;;11.90;5.40;;;;;;;22.11;53.37;100431.55;104990;1288;24336;-78
2022/08/26 01:08:26;;;;;;;13.90;5.40;;;;;;;22.05;53.70;100432.63;105226;1287;25467;-82
2022/08/26 01:10:56;;;;;;;12.80;4.50;;;;;;;21.98;53.72;100430.69;104699;1287;26511;-77
2022/08/26 01:13:24;;;;;;;14.90;5.40;;;;;;;21.89;54.10;100430.27;105038;1287;24078;-77
2022/08/26 01:15:55;;;;;;;18.70;5.80;;;;;;;21.87;54.34;100426.46;105533;1287;22571;-73
2022/08/26 01:18:24;;;;;;;11.90;5.30;;;;;;;21.82;54.77;100428.34;104810;1288;25268;-74
2022/08/26 01:21:14;;;;;;;15.80;5.60;;;;;;;21.78;54.76;100427.48;104956;1287;23407;-75
2022/08/26 01:23:48;;;;;;;9.70;4.70;;;;;;;21.76;55.13;100427.20;104880;1287;23978;-77
2022/08/26 01:26:20;;;;;;;11.10;4.80;;;;;;;21.74;55.14;100422.83;104997;1287;22575;-75
2022/08/26 01:28:49;;;;;;;11.10;4.50;;;;;;;21.74;55.13;100422.10;104774;1287;22758;-77
2022/08/26 01:31:21;;;;;;;12.50;5.70;;;;;;;21.75;55.13;100419.50;105255;1287;24279;-77
2022/08/26 01:34:10;;;;;;;15.40;5.40;;;;;;;21.76;55.15;100422.19;105192;1288;25408;-79
2022/08/26 01:36:38;;;;;;;11.00;4.80;;;;;;;21.75;55.30;100420.99;104933;1294;22550;-79
2022/08/26 01:39:06;;;;;;;11.90;5.00;;;;;;;21.71;55.28;100425.84;105940;1293;23228;-77
2022/08/26 01:41:36;;;;;;;10.40;4.80;;;;;;;21.67;55.62;100425.52;106327;1293;22610;-78
2022/08/26 01:44:07;;;;;;;18.60;5.10;;;;;;;21.65;55.75;100426.16;107540;1293;22600;-79
2022/08/26 01:46:36;;;;;;;9.10;4.70;;;;;;;21.64;55.78;100425.16;105333;1293;25546;-81
2022/08/26 01:49:05;;;;;;;14.90;5.10;;;;;;;21.62;55.76;100423.69;104427;1294;24248;-80
2022/08/26 01:51:38;;;;;;;11.50;5.00;;;;;;;21.57;56.13;100423.58;104208;1294;22593;-81
2022/08/26 01:54:07;;;;;;;9.30;5.00;;;;;;;21.56;56.19;100421.86;104131;1288;22753;-83
2022/08/26 01:56:38;;;;;;;11.90;5.00;;;;;;;21.58;56.29;100425.11;104833;1287;25278;-81
2022/08/26 01:59:10;;;;;;;12.70;5.10;;;;;;;21.60;56.31;100424.86;105078;1287;25442;-77
2022/08/26 02:01:38;;;;;;;12.30;4.90;;;;;;;21.60;56.20;100425.39;104458;1291;25227;-78
2022/08/26 02:04:13;;;;;;;9.90;4.90;;;;;;;21.61;56.14;100426.41;104747;1290;22571;-78
2022/08/26 02:06:40;;;;;;;;;;;;;;;21.60;55.81;100426.84;104780;1290;24009;-79
2022/08/26 02:09:07;;;;;;;8.40;5.10;;;;;;;21.56;55.59;100422.03;103810;1297;24890;-77
2022/08/26 02:11:34;;;;;;;9.40;4.60;;;;;;;21.55;55.70;100423.70;103706;1297;23097;-78
2022/08/26 02:14:10;;;;;;;14.20;5.30;;;;;;;21.54;56.09;100424.79;103996;1297;25350;-81
2022/08/26 02:16:41;;;;;;;12.40;5.20;;;;;;;21.51;56.06;100424.92;103891;1297;24369;-81
2022/08/26 02:19:14;;;;;;;9.10;5.00;;;;;;;21.49;56.10;100427.75;103809;1297;22692;-79
2022/08/26 02:21:45;;;;;;;7.50;5.20;;;;;;;21.45;56.37;100426.75;104059;1294;26563;-79
2022/08/26 02:24:21;;;;;;;10.80;5.30;;;;;;;21.44;56.04;100423.40;104077;1294;24235;-80
2022/08/26 02:26:50;;;;;;;9.90;5.00;;;;;;;21.44;56.14;100422.69;104238;1287;22576;-79
2022/08/26 02:29:25;;;;;;;9.50;5.20;;;;;;;21.41;56.11;100416.55;105321;1288;23825;-83
2022/08/26 02:31:54;;;;;;;10.00;4.60;;;;;;;21.41;56.01;100415.84;106682;1287;22758;-81
2022/08/26 02:34:27;;;;;;;10.90;5.10;;;;;;;21.40;56.09;100418.21;107293;1287;22557;-82
2022/08/26 02:36:59;;;;;;;9.60;5.00;;;;;;;21.42;56.18;100414.52;106146;1290;23227;-80
2022/08/26 02:39:28;;;;;;;7.00;4.70;;;;;;;21.46;56.19;100415.40;105602;1286;22655;-84
2022/08/26 02:41:56;;;;;;;11.80;4.70;;;;;;;21.46;56.34;100418.80;106195;1287;26544;-79
2022/08/26 02:44:23;;;;;;;13.20;5.50;;;;;;;21.46;56.51;100418.96;107369;1287;23015;-81
2022/08/26 02:46:53;;;;;;;11.80;5.00;;;;;;;21.45;56.73;100418.69;107350;1287;22710;-77
2022/08/26 02:49:22;;;;;;;9.80;5.20;;;;;;;21.43;56.84;100418.77;106794;1287;24250;-77
2022/08/26 02:51:49;;;;;;;7.60;4.70;;;;;;;21.43;56.89;100419.86;104951;1288;22570;-78
2022/08/26 02:54:20;;;;;;;7.60;4.70;;;;;;;21.40;56.95;100419.67;105697;1287;25395;-79
2022/08/26 02:56:46;;;;;;;8.50;4.70;;;;;;;21.32;57.19;100414.17;104814;1288;25414;-79
2022/08/26 02:59:13;;;;;;;9.70;5.20;;;;;;;21.25;57.36;100412.39;104991;1288;25228;-79
2022/08/26 03:01:40;;;;;;;15.10;5.30;;;;;;;21.20;57.40;100411.56;105051;1288;22574;-81
2022/08/26 03:04:09;;;;;;;9.20;5.00;;;;;;;21.20;57.61;100411.23;104895;1287;22578;-79
2022/08/26 03:06:36;;;;;;;9.50;5.40;;;;;;;21.18;57.58;100416.16;104199;1294;25462;-82
2022/08/26 03:09:04;;;;;;;12.20;5.00;;;;;;;21.14;57.74;100411.52;104242;1294;26619;-80
2022/08/26 03:11:31;;;;;;;10.90;5.50;;;;;;;21.13;57.76;100411.43;104160;1294;22582;-81
2022/08/26 03:14:00;;;;;;;13.20;4.90;;;;;;;21.13;57.88;100409.63;104148;1293;26518;-80
2022/08/26 03:16:34;;;;;;;11.30;4.90;;;;;;;21.10;57.74;100409.75;104393;1293;26602;-80
2022/08/26 03:19:03;;;;;;;14.40;5.60;;;;;;;21.08;57.93;100407.91;104771;1294;25431;-82
2022/08/26 03:21:30;;;;;;;8.00;4.80;;;;;;;21.07;58.05;100406.39;103994;1295;22572;-78
2022/08/26 03:23:56;;;;;;;10.60;5.40;;;;;;;20.99;58.04;100407.11;104308;1294;22790;-78
2022/08/26 03:26:26;;;;;;;7.40;4.90;;;;;;;20.95;58.38;100411.81;104199;1294;22963;-77
2022/08/26 03:31:39;;;;;;;9.80;5.50;;;;;;;20.92;58.96;100409.28;104393;1288;22585;-75
2022/08/26 03:34:06;;;;;;;11.70;5.40;;;;;;;20.90;59.07;100410.77;104030;1294;24210;-77
2022/08/26 03:36:33;;;;;;;9.70;5.40;;;;;;;20.88;59.32;100411.93;104069;1293;25565;-76
2022/08/26 03:39:01;;;;;;;14.90;5.60;;;;;;;20.88;59.50;100410.72;104215;1294;24239;-80
2022/08/26 03:41:31;;;;;;;8.70;4.70;;;;;;;20.83;59.69;100408.45;103888;1300;22587;-80
2022/08/26 03:43:58;;;;;;;10.20;5.50;;;;;;;20.80;59.93;100403.77;103767;1300;25780;-80
2022/08/26 03:46:27;;;;;;;10.00;5.00;;;;;;;20.75;60.17;100406.16;103756;1300;24415;-81
2022/08/26 03:48:54;;;;;;;18.10;5.40;;;;;;;20.74;60.40;100402.46;103506;1300;25408;-79
2022/08/26 03:51:20;;;;;;;10.50;4.90;;;;;;;20.78;60.32;100402.46;103691;1299;22700;-82
2022/08/26 03:53:47;;;;;;;13.80;5.70;;;;;;;20.81;60.12;100400.49;104171;1294;22572;-82
2022/08/26 03:56:14;;;;;;;16.50;5.90;;;;;;;20.84;60.32;100402.31;104593;1294;25410;-77
2022/08/26 03:58:40;;;;;;;15.20;5.70;;;;;;;20.85;60.46;100403.50;104809;1291;25402;-83
2022/08/26 04:01:09;;;;;;;16.70;6.00;;;;;;;20.83;60.43;100399.48;104798;1287;22582;-77
2022/08/26 04:04:09;;;;;;;13.40;5.50;;;;;;;20.85;60.61;100401.91;104720;1288;24278;-81
2022/08/26 04:06:32;;;;;;;14.90;5.90;;;;;;;20.84;60.38;100401.61;104077;1294;25477;-80
2022/08/26 04:09:04;;;;;;;11.50;6.10;;;;;;;20.82;60.50;100400.27;104273;1294;22923;-79
2022/08/26 04:11:31;;;;;;;11.40;5.60;;;;;;;20.83;60.33;100403.64;103890;1294;25631;-80
2022/08/26 04:14:04;;;;;;;15.60;5.70;;;;;;;20.84;60.29;100404.98;103907;1294;24387;-81
2022/08/26 04:16:31;;;;;;;15.90;5.80;;;;;;;20.84;60.33;100404.98;104030;1293;22555;-80
2022/08/26 04:18:57;;;;;;;13.00;5.50;;;;;;;20.82;60.29;100403.69;104200;1293;22574;-82
2022/08/26 04:21:25;;;;;;;13.70;5.80;;;;;;;20.79;60.30;100404.73;104431;1293;25297;-80
2022/08/26 04:23:53;;;;;;;15.60;6.10;;;;;;;20.77;60.02;100406.05;104078;1291;25386;-82
2022/08/26 04:26:21;;;;;;;13.10;6.10;;;;;;;20.75;60.23;100403.67;105134;1288;22709;-83
2022/08/26 04:28:52;;;;;;;13.80;5.80;;;;;;;20.70;60.25;100400.16;104894;1287;25291;-82
2022/08/26 04:31:18;;;;;;;9.40;5.60;;;;;;;20.68;60.36;100400.45;105037;1288;22862;-80
2022/08/26 04:33:48;;;;;;;13.70;6.20;;;;;;;20.66;60.33;100399.30;105959;1287;25398;-82
2022/08/26 04:36:16;;;;;;;14.70;5.50;;;;;;;20.63;60.42;100399.64;105315;1287;24518;-81
2022/08/26 04:38:44;;;;;;;12.30;6.50;;;;;;;20.59;60.50;100401.79;106950;1287;23309;-80
2022/08/26 04:41:12;;;;;;;12.00;5.50;;;;;;;20.60;60.61;100398.88;106593;1291;24255;-78
2022/08/26 04:43:45;;;;;;;13.20;5.50;;;;;;;20.60;60.37;100394.44;105744;1291;25481;-78
2022/08/26 04:46:15;;;;;;;10.60;5.20;;;;;;;20.59;60.35;100394.85;106113;1291;24245;-77
2022/08/26 04:48:42;;;;;;;12.30;5.90;;;;;;;20.59;60.38;100399.48;106953;1290;26576;-79
2022/08/26 04:51:09;;;;;;;14.10;6.00;;;;;;;20.64;60.22;100398.87;105794;1291;22691;-78
2022/08/26 04:53:36;;;;;;;12.90;6.20;;;;;;;20.66;60.02;100398.77;105583;1291;22558;-78
2022/08/26 04:56:03;;;;;;;10.40;5.10;;;;;;;20.67;60.13;100400.12;104845;1291;22730;-79
2022/08/26 04:58:31;;;;;;;11.70;5.20;;;;;;;20.70;60.14;100405.17;104602;1292;22839;-78
2022/08/26 05:00:57;;;;;;;13.40;6.20;;;;;;;20.74;60.18;100401.95;104917;1291;25403;-80
2022/08/26 05:03:26;;;;;;;14.70;6.20;;;;;;;20.76;60.05;100401.65;104718;1291;22560;-80
2022/08/26 05:05:53;;;;;;;12.80;5.60;;;;;;;20.77;60.03;100403.54;104836;1288;26572;-80
2022/08/26 05:08:22;;;;;;;13.00;5.80;;;;;;;20.78;59.97;100401.57;105452;1287;25282;-82
2022/08/26 05:10:54;;;;;;;11.10;5.80;;;;;;;20.78;59.95;100405.28;104335;1294;25300;-80
2022/08/26 05:13:23;;;;;;;16.60;6.30;;;;;;;20.82;60.00;100405.48;104399;1294;22663;-83
2022/08/26 05:15:50;;;;;;;16.00;5.90;;;;;;;20.83;59.92;100400.40;104402;1294;23996;-79
2022/08/26 05:18:19;;;;;;;12.50;5.90;;;;;;;20.87;59.84;100404.85;104563;1294;22589;-78
2022/08/26 05:20:49;;;;;;;17.70;5.60;;;;;;;20.90;59.64;100405.41;104361;1294;25288;-80
2022/08/26 05:23:17;;;;;;;13.30;5.80;;;;;;;20.93;59.76;100406.36;104596;1294;22572;-80
2022/08/26 05:25:46;;;;;;;16.80;5.90;;;;;;;20.96;59.70;100404.58;104461;1294;24258;-80
2022/08/26 05:28:15;;;;;;;22.10;6.00;;;;;;;20.98;59.51;100406.63;104609;1287;22566;-78
2022/08/26 05:30:41;;;;;;;13.00;5.30;;;;;;;21.02;59.17;100406.44;105237;1286;22582;-80
2022/08/26 05:33:10;;;;;;;12.40;5.50;;;;;;;21.07;59.26;100410.86;105250;1287;25330;-81
2022/08/26 05:35:38;;;;;;;15.50;5.20;;;;;;;21.12;59.07;100410.38;105873;1287;22506;-79
2022/08/26 05:38:11;;;;;;;17.90;5.90;;;;;;;21.18;58.73;100412.56;105504;1287;25454;-79
2022/08/26 05:40:43;;;;;;;12.10;5.40;;;;;;;21.26;58.26;100413.40;105219;1288;22702;-78
2022/08/26 05:43:12;;;;;;;13.00;5.90;;;;;;;21.32;57.84;100414.70;105529;1287;25260;-81
2022/08/26 05:45:42;;;;;;;23.00;5.80;;;;;;;21.36;57.91;100416.25;105322;1287;22579;-82
2022/08/26 05:48:13;;;;;;;17.70;5.70;;;;;;;21.41;57.37;100418.16;105590;1287;25334;-81
2022/08/26 05:50:46;;;;;;;14.10;5.60;;;;;;;21.47;57.08;100418.54;105202;1287;22710;-80
2022/08/26 05:53:15;;;;;;;16.00;5.80;;;;;;;21.53;56.67;100416.61;105110;1287;24217;-80
2022/08/26 05:55:48;;;;;;;19.60;6.10;;;;;;;21.59;56.55;100421.53;105178;1287;25304;-80
2022/08/26 05:58:16;;;;;;;12.80;5.10;;;;;;;21.62;56.40;100423.65;105136;1287;24334;-79
2022/08/26 06:00:43;;;;;;;15.50;5.80;;;;;;;21.67;56.36;100423.38;104575;1288;24344;-80
2022/08/26 06:03:10;;;;;;;13.70;5.50;;;;;;;21.70;56.20;100415.71;104940;1288;24300;-78
2022/08/26 06:05:39;;;;;;;12.30;5.80;;;;;;;21.77;56.27;100415.84;104899;1287;25330;-81
2022/08/26 06:08:13;;;;;;;15.20;5.80;;;;;;;21.83;55.94;100417.53;104722;1288;22567;-82
2022/08/26 06:10:52;;;;;;;11.20;5.70;;;;;;;21.87;55.60;100417.50;104780;1288;24327;-86
2022/08/26 06:13:22;;;;;;;17.80;5.70;;;;;;;21.89;55.40;100414.13;104877;1287;24120;-80
2022/08/26 06:15:50;;;;;;;13.10;6.60;;;;;;;21.93;55.45;100415.58;104980;1288;26555;-83
2022/08/26 06:18:21;;;;;;;11.10;5.20;;;;;;;21.96;55.40;100408.36;105245;1287;22552;-78
2022/08/26 06:20:49;;;;;;;11.70;5.70;;;;;;;21.99;55.38;100413.91;105220;1287;24215;-79
2022/08/26 06:26:14;;;;;;;13.00;5.40;;;;;;;22.12;55.53;100411.26;104834;1287;22736;-80
2022/08/26 06:28:42;;;;;;;13.70;6.00;;;;;;;22.18;55.47;100409.27;104864;1288;22681;-80
2022/08/26 06:31:12;;;;;;;16.30;6.00;;;;;;;22.26;55.15;100410.80;105042;1287;23692;-76
2022/08/26 06:33:38;;;;;;;12.10;5.90;;;;;;;22.33;55.13;100411.14;105108;1288;25385;-79
2022/08/26 06:36:05;;;;;;;19.70;6.10;;;;;;;22.38;54.99;100414.24;104788;1288;22722;-81
2022/08/26 06:38:32;;;;;;;12.90;6.10;;;;;;;22.44;54.84;100416.98;104727;1287;22567;-81
2022/08/26 06:40:58;;;;;;;12.40;5.80;;;;;;;22.49;54.76;100417.75;104812;1288;22888;-82
2022/08/26 06:43:28;;;;;;;19.20;6.70;;;;;;;22.56;54.92;100419.34;104875;1287;25726;-79
2022/08/26 06:46:03;;;;;;;14.40;5.20;;;;;;;22.60;54.68;100414.05;104925;1287;25308;-81
2022/08/26 06:48:31;;;;;;;13.10;6.40;;;;;;;22.68;54.39;100416.63;104889;1287;22729;-78
2022/08/26 06:51:02;;;;;;;17.10;6.00;;;;;;;22.75;54.50;100418.95;104749;1288;24236;-76
2022/08/26 06:53:28;;;;;;;19.50;5.80;;;;;;;22.81;54.05;100418.58;104943;1287;25436;-76
2022/08/26 06:55:54;;;;;;;15.60;6.10;;;;;;;22.86;53.92;100421.17;104816;1288;22575;-80
2022/08/26 06:58:22;;;;;;;14.30;5.40;;;;;;;22.92;53.88;100419.88;104549;1291;25305;-80
2022/08/26 07:00:50;;;;;;;11.80;5.10;;;;;;;23.01;53.60;100418.13;104130;1292;24910;-79
2022/08/26 07:03:17;;;;;;;18.90;5.60;;;;;;;23.08;53.46;100417.48;104491;1291;25518;-79
2022/08/26 07:05:43;;;;;;;12.80;5.20;;;;;;;23.16;52.64;100417.75;104389;1291;25603;-79
2022/08/26 07:08:11;;;;;;;11.20;4.80;;;;;;;23.22;52.49;100417.69;103225;1292;1364189;-82
2022/08/26 07:10:37;;;;;;;10.00;4.90;;;;;;;23.30;52.38;100417.08;104300;1291;22571;-80
2022/08/26 07:13:05;;;;;;;13.60;5.70;;;;;;;23.37;52.01;100420.39;104355;1291;22651;-79
2022/08/26 07:15:34;;;;;;;11.30;4.60;;;;;;;23.45;51.88;100417.44;104480;1291;22582;-80
2022/08/26 07:18:01;;;;;;;13.30;4.80;;;;;;;23.52;51.45;100415.58;104236;1291;22550;-79
2022/08/26 07:20:28;;;;;;;9.60;4.90;;;;;;;23.59;51.18;100416.54;104358;1291;22559;-81
2022/08/26 07:22:54;;;;;;;9.10;4.60;;;;;;;23.67;51.01;100414.64;104492;1288;22729;-79
2022/08/26 07:25:20;;;;;;;12.80;4.90;;;;;;;23.74;50.83;100407.14;104801;1288;22589;-78
2022/08/26 07:27:46;;;;;;;10.10;4.30;;;;;;;23.82;50.87;100408.09;104697;1288;22559;-79
2022/08/26 07:30:20;;;;;;;13.10;4.70;;;;;;;23.90;50.33;100407.04;105200;1288;22582;-79
2022/08/26 07:32:47;;;;;;;11.20;5.10;;;;;;;23.98;50.12;100405.79;104708;1289;25366;-80
2022/08/26 07:35:14;;;;;;;12.20;4.60;;;;;;;24.07;50.23;100404.46;104786;1288;25330;-81
2022/08/26 07:37:41;;;;;;;9.50;4.50;;;;;;;24.16;50.02;100404.82;104756;1287;24237;-79
2022/08/26 07:40:08;;;;;;;13.00;4.60;;;;;;;24.23;50.01;100402.03;104645;1288;22720;-82
2022/08/26 07:42:35;;;;;;;14.20;5.20;;;;;;;24.32;49.87;100398.23;104790;1287;25343;-80
2022/08/26 07:45:01;;;;;;;14.30;4.70;;;;;;;24.40;49.61;100400.58;105259;1288;24276;-79
2022/08/26 07:47:27;;;;;;;15.30;5.30;;;;;;;24.47;49.46;100399.52;106378;1287;25261;-79
2022/08/26 07:49:56;;;;;;;12.30;5.00;;;;;;;24.56;49.14;100396.98;107348;1287;22623;-79
2022/08/26 07:52:27;;;;;;;8.50;4.70;;;;;;;24.64;48.93;100398.41;106902;1290;22983;-78
2022/08/26 07:54:59;;;;;;;12.70;4.70;;;;;;;24.73;48.56;100396.73;107748;1287;22587;-79
2022/08/26 07:57:28;;;;;;;12.70;4.40;;;;;;;24.83;48.41;100395.52;106759;1287;22781;-79
2022/08/26 07:59:55;;;;;;;12.30;5.40;;;;;;;24.94;48.52;100392.64;107249;1287;25364;-80
2022/08/26 08:02:22;;;;;;;13.30;4.60;;;;;;;25.05;48.32;100390.80;105050;1288;22717;-79
2022/08/26 08:04:48;;;;;;;8.30;4.50;;;;;;;25.15;48.17;100395.09;104738;1288;24276;-79
2022/08/26 08:07:15;;;;;;;12.60;4.60;;;;;;;25.27;47.98;100395.52;104621;1288;25275;-81
2022/08/26 08:09:41;;;;;;;11.00;4.50;;;;;;;25.39;47.99;100393.41;104765;1288;22563;-81
2022/08/26 08:12:08;;;;;;;13.40;4.60;;;;;;;25.53;48.18;100392.30;104698;1289;24114;-82
2022/08/26 08:14:43;;;;;;;10.80;4.60;;;;;;;25.66;48.06;100393.13;105046;1287;25269;-76
2022/08/26 08:17:11;;;;;;;14.50;4.90;;;;;;;25.79;47.87;100391.84;104854;1288;24417;-80
2022/08/26 08:19:42;;;;;;;12.00;4.80;;;;;;;25.91;47.69;100386.48;104972;1287;25352;-78
2022/08/26 08:22:08;;;;;;;11.60;4.80;;;;;;;26.05;47.54;100384.39;105614;1287;23191;-78
2022/08/26 08:24:48;;;;;;;13.50;4.90;;;;;;;26.19;46.53;100384.05;104747;1288;25398;-77
2022/08/26 08:27:16;;;;;;;13.80;4.90;;;;;;;26.32;46.00;100375.74;104911;1287;25350;-82
2022/08/26 08:29:47;;;;;;;17.50;4.70;;;;;;;26.44;45.43;100376.25;105894;1287;25391;-78
2022/08/26 08:32:14;;;;;;;11.10;4.80;;;;;;;26.59;45.48;100375.86;104865;1288;22599;-83
2022/08/26 08:34:41;;;;;;;10.50;4.80;;;;;;;26.71;45.38;100371.66;104322;1294;25312;-80
2022/08/26 08:37:12;;;;;;;10.30;4.40;;;;;;;26.87;45.29;100374.75;104420;1294;22561;-76
2022/08/26 08:39:38;;;;;;;11.00;4.70;;;;;;;26.99;45.12;100376.20;104299;1293;22570;-80
2022/08/26 08:42:27;;;;;;;13.70;4.70;;;;;;;27.12;44.80;100372.89;104449;1291;22684;-82
2022/08/26 08:44:58;;;;;;;8.10;4.30;;;;;;;27.27;43.91;100368.41;104333;1294;22685;-82
2022/08/26 08:47:41;;;;;;;18.60;4.60;;;;;;;27.43;43.82;100368.75;104246;1294;24562;-82
2022/08/26 08:50:20;;;;;;;10.30;4.90;;;;;;;27.61;43.10;100366.59;104309;1294;22588;-81
2022/08/26 08:53:01;;;;;;;11.20;4.40;;;;;;;27.77;42.94;100366.02;104446;1288;22667;-79
2022/08/26 08:55:35;;;;;;;13.90;4.90;;;;;;;27.92;42.97;100364.27;104791;1288;24691;-79
2022/08/26 08:58:12;;;;;;;18.80;4.70;;;;;;;28.04;42.84;100360.02;104631;1290;22577;-80
2022/08/26 09:01:03;;;;;;;13.20;5.00;;;;;;;28.11;42.81;100358.35;104467;1288;25269;-79
2022/08/26 09:03:54;;;;;;;10.10;4.40;;;;;;;28.19;42.93;100362.80;105182;1288;22575;-81
2022/08/26 09:06:20;;;;;;;7.70;4.50;;;;;;;28.25;42.96;100360.46;104846;1287;24259;-81
2022/08/26 09:08:49;;;;;;;12.70;4.80;;;;;;;28.32;42.98;100362.30;104749;1288;22732;-80
2022/08/26 09:11:19;;;;;;;12.40;5.00;;;;;;;28.38;42.74;100360.52;104862;1288;26516;-80
2022/08/26 09:13:50;;;;;;;14.40;4.60;;;;;;;28.48;42.61;100363.98;104632;1288;25384;-80
2022/08/26 09:16:26;;;;;;;13.40;4.80;;;;;;;28.57;42.20;100360.17;104795;1288;22555;-78
2022/08/26 09:19:04;;;;;;;11.60;5.20;;;;;;;28.62;42.13;100365.40;104956;1288;24227;-79
2022/08/26 09:21:31;;;;;;;7.10;3.80;;;;;;;28.74;41.57;100366.73;104959;1287;27134;-81
2022/08/26 09:23:58;;;;;;;7.30;4.40;;;;;;;28.86;41.31;100360.08;104992;1289;22545;-79
2022/08/26 09:26:39;;;;;;;13.50;4.90;;;;;;;29.05;41.05;100361.15;104166;1294;25610;-81
2022/08/26 09:29:23;;;;;;;10.40;4.40;;;;;;;29.29;40.83;100362.10;104240;1293;25662;-78
2022/08/26 09:31:51;;;;;;;5.60;3.90;;;;;;;29.56;40.59;100353.55;104247;1294;22642;-81
2022/08/26 09:34:25;;;;;;;7.70;4.90;;;;;;;29.79;39.96;100350.80;103820;1299;22589;-78
2022/08/26 09:36:58;;;;;;;11.10;4.40;;;;;;;29.99;39.08;100352.11;104174;1299;22634;-81
2022/08/26 09:39:27;;;;;;;9.20;4.20;;;;;;;30.06;38.72;100352.88;103803;1299;25572;-83
2022/08/26 09:42:03;;;;;;;6.20;3.90;;;;;;;30.06;38.82;100349.41;103709;1299;24238;-80
2022/08/26 09:44:30;;;;;;;10.70;4.50;;;;;;;30.20;38.76;100347.42;103851;1294;23306;-80
2022/08/26 09:47:00;;;;;;;10.40;4.30;;;;;;;30.41;38.22;100343.01;104203;1294;22797;-79
2022/08/26 09:49:34;;;;;;;6.90;3.40;;;;;;;30.55;38.01;100341.55;104161;1293;25365;-81
2022/08/26 09:52:24;;;;;;;6.90;4.20;;;;;;;30.59;37.97;100341.27;104267;1288;24519;-80
2022/08/26 09:55:21;;;;;;;10.40;3.80;;;;;;;30.71;37.39;100339.09;104808;1287;25550;-78
2022/08/26 09:57:53;;;;;;;9.20;3.70;;;;;;;30.80;36.85;100336.67;104098;1294;25283;-82
2022/08/26 10:00:56;;;;;;;14.70;4.10;;;;;;;30.85;36.97;100340.30;104172;1292;25417;-82
2022/08/26 10:03:27;;;;;;;9.30;4.20;;;;;;;30.84;37.44;100338.95;104305;1292;25330;-82
2022/08/26 10:06:01;;;;;;;10.40;4.30;;;;;;;30.81;37.16;100339.23;104337;1294;25375;-79
2022/08/26 10:08:32;;;;;;;6.90;3.60;;;;;;;30.83;36.78;100334.85;104238;1293;23347;-80
2022/08/26 10:11:10;;;;;;;7.40;4.30;;;;;;;30.86;36.85;100331.10;103732;1300;22567;-81
2022/08/26 10:13:41;;;;;;;12.50;3.80;;;;;;;30.96;36.74;100326.93;103856;1297;22557;-81
2022/08/26 10:16:20;;;;;;;10.80;3.90;;;;;;;30.95;36.77;100326.50;103962;1294;23450;-82
2022/08/26 10:19:08;;;;;;;12.80;4.20;;;;;;;30.92;36.54;100324.26;104057;1294;22551;-81
2022/08/26 10:21:37;;;;;;;13.40;4.90;;;;;;;30.94;37.05;100323.90;104179;1294;22564;-78
2022/08/26 10:24:06;;;;;;;9.10;4.10;;;;;;;30.95;36.44;100319.94;104048;1294;24316;-77
2022/08/26 10:26:43;;;;;;;8.90;4.80;;;;;;;31.02;36.42;100321.05;104331;1294;25462;-80
2022/08/26 10:29:27;;;;;;;11.30;3.90;;;;;;;31.15;35.99;100316.54;104579;1287;25450;-79
2022/08/26 10:31:58;;;;;;;10.70;3.60;;;;;;;31.22;36.06;100316.64;104771;1287;22577;-82
2022/08/26 10:34:33;;;;;;;10.90;4.20;;;;;;;31.27;36.39;100317.88;104850;1287;23403;-80
2022/08/26 10:37:07;;;;;;;10.90;4.20;;;;;;;31.37;36.50;100317.48;105094;1288;22730;-81
2022/08/26 10:39:48;;;;;;;7.70;4.60;;;;;;;31.50;36.32;100313.55;105423;1287;22897;-80
2022/08/26 10:42:34;;;;;;;13.30;4.00;;;;;;;31.60;35.91;100315.80;104937;1287;25279;-82
2022/08/26 10:45:24;;;;;;;11.60;3.90;;;;;;;31.78;35.57;100318.33;104816;1287;22555;-80
2022/08/26 10:48:04;;;;;;;8.10;4.40;;;;;;;31.89;34.37;100316.42;104884;1290;22589;-81
2022/08/26 10:50:34;;;;;;;10.30;4.20;;;;;;;31.94;34.08;100311.02;104884;1287;24246;-82
2022/08/26 10:53:21;;;;;;;8.30;4.20;;;;;;;32.04;33.28;100310.72;105335;1288;24062;-80
2022/08/26 10:56:03;;;;;;;7.50;4.00;;;;;;;32.23;32.99;100304.86;107039;1287;24141;-81
2022/08/26 10:59:07;;;;;;;9.60;4.10;;;;;;;32.27;33.00;100303.73;107152;1288;22566;-82
2022/08/26 11:01:57;;;;;;;7.80;4.00;;;;;;;32.26;33.03;100301.98;106977;1294;23115;-81
2022/08/26 11:04:40;;;;;;;6.80;3.70;;;;;;;32.25;32.53;100298.95;107160;1294;22561;-79
2022/08/26 11:07:38;;;;;;;6.70;4.10;;;;;;;32.34;32.69;100293.36;106688;1297;22591;-78
2022/08/26 11:10:11;;;;;;;6.00;4.00;;;;;;;32.58;31.99;100290.84;106572;1294;22710;-80
2022/08/26 11:12:40;;;;;;;11.50;3.60;;;;;;;32.87;31.81;100291.10;103786;1299;25366;-80
2022/08/26 11:15:20;;;;;;;9.40;4.10;;;;;;;33.11;31.41;100293.35;103740;1299;22592;-81
2022/08/26 11:17:50;;;;;;;8.10;4.00;;;;;;;33.29;31.04;100292.02;103689;1300;26896;-81
2022/08/26 11:20:22;;;;;;;10.80;4.40;;;;;;;33.58;30.29;100287.09;103660;1299;25294;-80
2022/08/26 11:22:51;;;;;;;7.90;3.80;;;;;;;33.92;29.75;100279.40;103636;1299;25669;-80
2022/08/26 11:25:19;;;;;;;7.50;4.00;;;;;;;34.05;29.27;100280.67;103676;1300;22795;-80
2022/08/26 11:27:49;;;;;;;7.90;4.10;;;;;;;34.14;29.35;100273.52;104285;1294;25515;-80
2022/08/26 11:30:15;;;;;;;9.60;4.50;;;;;;;34.37;28.89;100275.25;104088;1290;24430;-80
2022/08/26 11:32:51;;;;;;;9.70;4.30;;;;;;;34.53;28.54;100270.23;104831;1288;25337;-81
2022/08/26 11:35:18;;;;;;;9.30;4.00;;;;;;;34.51;28.63;100270.02;104498;1288;22601;-78